sensor_id;sensor_type;location;lat;lon;timestamp;temperature;humidity
64111;DHT22;50401;48.188;11.566;2023-05-14T00:02:11;11.28;86.37
64111;DHT22;50401;48.188;11.566;2023-05-14T00:04:37;11.24;86.46
64111;DHT22;50401;48.188;11.566;2023-05-14T00:07:02;11.38;86.27
64111;DHT22;50401;48.188;11.566;2023-05-14T00:09:28;11.38;86.07
64111;DHT22;50401;48.188;11.566;2023-05-14T00:11:55;11.13;86.40
64111;DHT22;50401;48.188;11.566;2023-05-14T00:14:20;11.10;86.76
64111;DHT22;50401;48.188;11.566;2023-05-14T00:16:46;11.07;87.09
64111;DHT22;50401;48.188;11.566;2023-05-14T00:19:11;11.27;86.62
64111;DHT22;50401;48.188;11.566;2023-05-14T00:21:37;11.35;86.40
64111;DHT22;50401;48.188;11.566;2023-05-14T00:24:02;11.31;86.21
64111;DHT22;50401;48.188;11.566;2023-05-14T00:26:28;11.35;86.16
64111;DHT22;50401;48.188;11.566;2023-05-14T00:28:53;11.26;86.57
64111;DHT22;50401;48.188;11.566;2023-05-14T00:31:18;11.42;86.25
64111;DHT22;50401;48.188;11.566;2023-05-14T00:33:44;11.24;85.97
64111;DHT22;50401;48.188;11.566;2023-05-14T00:36:09;11.20;86.47
64111;DHT22;50401;48.188;11.566;2023-05-14T00:38:35;11.20;86.54
64111;DHT22;50401;48.188;11.566;2023-05-14T00:41:00;11.17;86.32
64111;DHT22;50401;48.188;11.566;2023-05-14T00:43:25;10.93;86.73
64111;DHT22;50401;48.188;11.566;2023-05-14T00:45:52;10.80;86.92
64111;DHT22;50401;48.188;11.566;2023-05-14T00:48:22;10.78;87.12
64111;DHT22;50401;48.188;11.566;2023-05-14T00:50:48;10.85;86.98
64111;DHT22;50401;48.188;11.566;2023-05-14T00:53:15;10.80;87.16
64111;DHT22;50401;48.188;11.566;2023-05-14T00:55:41;10.86;86.72
64111;DHT22;50401;48.188;11.566;2023-05-14T00:58:10;10.91;86.80
64111;DHT22;50401;48.188;11.566;2023-05-14T01:00:36;11.00;86.28
64111;DHT22;50401;48.188;11.566;2023-05-14T01:03:05;10.80;87.02
64111;DHT22;50401;48.188;11.566;2023-05-14T01:08:21;10.82;86.97
64111;DHT22;50401;48.188;11.566;2023-05-14T01:10:59;10.73;87.40
64111;DHT22;50401;48.188;11.566;2023-05-14T01:13:37;10.85;87.20
64111;DHT22;50401;48.188;11.566;2023-05-14T01:16:09;10.95;87.09
64111;DHT22;50401;48.188;11.566;2023-05-14T01:18:35;11.07;86.95
64111;DHT22;50401;48.188;11.566;2023-05-14T01:21:01;11.14;86.72
64111;DHT22;50401;48.188;11.566;2023-05-14T01:23:26;11.19;86.52
64111;DHT22;50401;48.188;11.566;2023-05-14T01:25:51;11.21;86.46
64111;DHT22;50401;48.188;11.566;2023-05-14T01:28:18;11.26;86.39
64111;DHT22;50401;48.188;11.566;2023-05-14T01:33:15;11.23;86.45
64111;DHT22;50401;48.188;11.566;2023-05-14T01:35:43;11.31;86.24
64111;DHT22;50401;48.188;11.566;2023-05-14T01:38:10;11.31;85.97
64111;DHT22;50401;48.188;11.566;2023-05-14T01:40:36;11.27;85.83
64111;DHT22;50401;48.188;11.566;2023-05-14T01:43:03;11.23;86.06
64111;DHT22;50401;48.188;11.566;2023-05-14T01:45:29;11.27;85.98
64111;DHT22;50401;48.188;11.566;2023-05-14T01:47:55;11.28;85.71
64111;DHT22;50401;48.188;11.566;2023-05-14T01:50:20;11.27;85.71
64111;DHT22;50401;48.188;11.566;2023-05-14T01:52:46;11.24;85.69
64111;DHT22;50401;48.188;11.566;2023-05-14T01:55:12;11.21;85.64
64111;DHT22;50401;48.188;11.566;2023-05-14T01:57:38;11.23;85.69
64111;DHT22;50401;48.188;11.566;2023-05-14T02:00:04;11.20;85.69
64111;DHT22;50401;48.188;11.566;2023-05-14T02:02:29;11.16;85.89
64111;DHT22;50401;48.188;11.566;2023-05-14T02:04:55;11.16;85.99
64111;DHT22;50401;48.188;11.566;2023-05-14T02:07:20;11.26;86.09
64111;DHT22;50401;48.188;11.566;2023-05-14T02:09:45;11.34;85.95
64111;DHT22;50401;48.188;11.566;2023-05-14T02:12:11;11.32;86.10
64111;DHT22;50401;48.188;11.566;2023-05-14T02:14:36;11.30;86.27
64111;DHT22;50401;48.188;11.566;2023-05-14T02:17:02;11.30;86.48
64111;DHT22;50401;48.188;11.566;2023-05-14T02:19:28;11.31;86.42
64111;DHT22;50401;48.188;11.566;2023-05-14T02:21:54;11.28;86.50
64111;DHT22;50401;48.188;11.566;2023-05-14T02:24:19;11.23;86.65
64111;DHT22;50401;48.188;11.566;2023-05-14T02:26:45;11.17;86.61
64111;DHT22;50401;48.188;11.566;2023-05-14T02:29:10;11.19;86.80
64111;DHT22;50401;48.188;11.566;2023-05-14T02:31:35;11.20;86.82
64111;DHT22;50401;48.188;11.566;2023-05-14T02:34:02;11.23;86.76
64111;DHT22;50401;48.188;11.566;2023-05-14T02:36:28;11.24;86.49
64111;DHT22;50401;48.188;11.566;2023-05-14T02:38:53;11.19;86.58
64111;DHT22;50401;48.188;11.566;2023-05-14T02:41:19;11.17;86.57
64111;DHT22;50401;48.188;11.566;2023-05-14T02:43:45;11.21;86.52
64111;DHT22;50401;48.188;11.566;2023-05-14T02:46:11;11.14;86.32
64111;DHT22;50401;48.188;11.566;2023-05-14T02:48:36;11.16;86.43
64111;DHT22;50401;48.188;11.566;2023-05-14T02:51:01;11.11;86.42
64111;DHT22;50401;48.188;11.566;2023-05-14T02:53:27;11.14;86.36
64111;DHT22;50401;48.188;11.566;2023-05-14T02:55:52;11.06;86.45
64111;DHT22;50401;48.188;11.566;2023-05-14T02:58:18;11.02;86.67
64111;DHT22;50401;48.188;11.566;2023-05-14T03:00:43;11.02;86.80
64111;DHT22;50401;48.188;11.566;2023-05-14T03:03:09;11.04;86.79
64111;DHT22;50401;48.188;11.566;2023-05-14T03:05:34;11.13;86.63
64111;DHT22;50401;48.188;11.566;2023-05-14T03:07:59;11.17;86.33
64111;DHT22;50401;48.188;11.566;2023-05-14T03:10:25;11.17;85.92
64111;DHT22;50401;48.188;11.566;2023-05-14T03:12:50;11.11;86.03
64111;DHT22;50401;48.188;11.566;2023-05-14T03:15:16;11.00;86.13
64111;DHT22;50401;48.188;11.566;2023-05-14T03:17:41;11.02;86.30
64111;DHT22;50401;48.188;11.566;2023-05-14T03:20:07;10.99;86.38
64111;DHT22;50401;48.188;11.566;2023-05-14T03:22:32;11.06;86.10
64111;DHT22;50401;48.188;11.566;2023-05-14T03:24:58;11.02;86.14
64111;DHT22;50401;48.188;11.566;2023-05-14T03:27:23;10.96;86.30
64111;DHT22;50401;48.188;11.566;2023-05-14T03:29:48;10.93;86.41
64111;DHT22;50401;48.188;11.566;2023-05-14T03:32:14;10.89;86.52
64111;DHT22;50401;48.188;11.566;2023-05-14T03:34:40;10.88;86.59
64111;DHT22;50401;48.188;11.566;2023-05-14T03:37:05;10.83;86.79
64111;DHT22;50401;48.188;11.566;2023-05-14T03:39:31;10.88;86.80
64111;DHT22;50401;48.188;11.566;2023-05-14T03:41:56;10.82;86.90
64111;DHT22;50401;48.188;11.566;2023-05-14T03:44:23;10.89;86.79
64111;DHT22;50401;48.188;11.566;2023-05-14T03:46:49;10.85;86.81
64111;DHT22;50401;48.188;11.566;2023-05-14T03:49:14;10.89;86.74
64111;DHT22;50401;48.188;11.566;2023-05-14T03:51:39;10.60;87.53
64111;DHT22;50401;48.188;11.566;2023-05-14T03:54:05;10.64;87.71
64111;DHT22;50401;48.188;11.566;2023-05-14T03:56:30;10.72;87.62
64111;DHT22;50401;48.188;11.566;2023-05-14T03:58:56;10.72;87.57
64111;DHT22;50401;48.188;11.566;2023-05-14T04:01:21;10.80;87.39
64111;DHT22;50401;48.188;11.566;2023-05-14T04:03:46;10.76;87.33
64111;DHT22;50401;48.188;11.566;2023-05-14T04:06:12;10.52;87.89
64111;DHT22;50401;48.188;11.566;2023-05-14T04:08:37;10.41;88.51
64111;DHT22;50401;48.188;11.566;2023-05-14T04:11:03;10.52;88.31
64111;DHT22;50401;48.188;11.566;2023-05-14T04:13:28;10.68;87.97
64111;DHT22;50401;48.188;11.566;2023-05-14T04:15:54;10.85;87.57
64111;DHT22;50401;48.188;11.566;2023-05-14T04:18:19;10.86;87.18
64111;DHT22;50401;48.188;11.566;2023-05-14T04:20:44;10.72;87.36
64111;DHT22;50401;48.188;11.566;2023-05-14T04:23:10;10.73;87.52
64111;DHT22;50401;48.188;11.566;2023-05-14T04:25:35;10.73;87.67
64111;DHT22;50401;48.188;11.566;2023-05-14T04:28:00;10.65;88.08
64111;DHT22;50401;48.188;11.566;2023-05-14T04:30:26;10.68;87.94
64111;DHT22;50401;48.188;11.566;2023-05-14T04:32:51;10.50;88.48
64111;DHT22;50401;48.188;11.566;2023-05-14T04:35:17;10.55;88.45
64111;DHT22;50401;48.188;11.566;2023-05-14T04:37:44;10.30;89.39
64111;DHT22;50401;48.188;11.566;2023-05-14T04:40:09;10.45;89.17
64111;DHT22;50401;48.188;11.566;2023-05-14T04:42:37;10.54;88.84
64111;DHT22;50401;48.188;11.566;2023-05-14T04:45:04;10.65;88.55
64111;DHT22;50401;48.188;11.566;2023-05-14T04:47:30;10.62;88.55
64111;DHT22;50401;48.188;11.566;2023-05-14T04:49:55;10.62;88.54
64111;DHT22;50401;48.188;11.566;2023-05-14T04:52:22;10.38;89.50
64111;DHT22;50401;48.188;11.566;2023-05-14T04:54:47;10.50;89.26
64111;DHT22;50401;48.188;11.566;2023-05-14T04:57:13;10.52;89.09
64111;DHT22;50401;48.188;11.566;2023-05-14T04:59:38;10.60;88.88
64111;DHT22;50401;48.188;11.566;2023-05-14T05:02:04;10.67;88.88
64111;DHT22;50401;48.188;11.566;2023-05-14T05:04:29;10.68;88.59
64111;DHT22;50401;48.188;11.566;2023-05-14T05:06:54;10.55;89.29
64111;DHT22;50401;48.188;11.566;2023-05-14T05:09:20;10.20;90.16
64111;DHT22;50401;48.188;11.566;2023-05-14T05:11:45;9.88;91.34
64111;DHT22;50401;48.188;11.566;2023-05-14T05:14:10;9.89;91.42
64111;DHT22;50401;48.188;11.566;2023-05-14T05:16:36;10.03;91.32
64111;DHT22;50401;48.188;11.566;2023-05-14T05:19:01;10.20;90.92
64111;DHT22;50401;48.188;11.566;2023-05-14T05:21:27;10.20;90.71
64111;DHT22;50401;48.188;11.566;2023-05-14T05:23:52;10.27;90.33
64111;DHT22;50401;48.188;11.566;2023-05-14T05:26:17;10.47;90.20
64111;DHT22;50401;48.188;11.566;2023-05-14T05:28:43;10.60;89.54
64111;DHT22;50401;48.188;11.566;2023-05-14T05:31:08;10.61;89.20
64111;DHT22;50401;48.188;11.566;2023-05-14T05:33:34;10.51;89.27
64111;DHT22;50401;48.188;11.566;2023-05-14T05:35:59;10.40;89.73
64111;DHT22;50401;48.188;11.566;2023-05-14T05:38:25;10.17;90.58
64111;DHT22;50401;48.188;11.566;2023-05-14T05:40:50;10.23;90.64
64111;DHT22;50401;48.188;11.566;2023-05-14T05:43:16;10.33;90.42
64111;DHT22;50401;48.188;11.566;2023-05-14T05:45:42;10.50;89.83
64111;DHT22;50401;48.188;11.566;2023-05-14T05:48:07;10.61;89.64
64111;DHT22;50401;48.188;11.566;2023-05-14T05:50:33;10.64;89.32
64111;DHT22;50401;48.188;11.566;2023-05-14T05:52:58;10.67;89.20
64111;DHT22;50401;48.188;11.566;2023-05-14T05:55:24;10.75;89.07
64111;DHT22;50401;48.188;11.566;2023-05-14T05:57:49;10.48;89.72
64111;DHT22;50401;48.188;11.566;2023-05-14T06:00:15;10.47;90.04
64111;DHT22;50401;48.188;11.566;2023-05-14T06:02:41;10.61;89.64
64111;DHT22;50401;48.188;11.566;2023-05-14T06:05:07;10.16;91.22
64111;DHT22;50401;48.188;11.566;2023-05-14T06:07:33;10.36;90.89
64111;DHT22;50401;48.188;11.566;2023-05-14T06:09:59;10.52;90.27
64111;DHT22;50401;48.188;11.566;2023-05-14T06:12:24;10.61;89.79
64111;DHT22;50401;48.188;11.566;2023-05-14T06:14:50;10.68;89.51
64111;DHT22;50401;48.188;11.566;2023-05-14T06:17:15;10.79;89.40
64111;DHT22;50401;48.188;11.566;2023-05-14T06:19:41;10.89;88.88
64111;DHT22;50401;48.188;11.566;2023-05-14T06:22:06;10.83;88.96
64111;DHT22;50401;48.188;11.566;2023-05-14T06:24:31;10.89;88.54
64111;DHT22;50401;48.188;11.566;2023-05-14T06:26:57;10.96;88.48
64111;DHT22;50401;48.188;11.566;2023-05-14T06:29:22;11.00;88.27
64111;DHT22;50401;48.188;11.566;2023-05-14T06:31:47;10.99;88.05
64111;DHT22;50401;48.188;11.566;2023-05-14T06:34:13;11.13;87.98
64111;DHT22;50401;48.188;11.566;2023-05-14T06:36:38;11.11;87.73
64111;DHT22;50401;48.188;11.566;2023-05-14T06:39:04;11.04;87.88
64111;DHT22;50401;48.188;11.566;2023-05-14T06:41:29;10.97;88.20
64111;DHT22;50401;48.188;11.566;2023-05-14T06:43:55;10.97;88.21
64111;DHT22;50401;48.188;11.566;2023-05-14T06:46:20;10.43;89.92
64111;DHT22;50401;48.188;11.566;2023-05-14T06:48:46;10.68;89.84
64111;DHT22;50401;48.188;11.566;2023-05-14T06:51:11;10.83;89.07
64111;DHT22;50401;48.188;11.566;2023-05-14T06:53:37;10.93;88.88
64111;DHT22;50401;48.188;11.566;2023-05-14T06:56:03;10.99;88.55
64111;DHT22;50401;48.188;11.566;2023-05-14T06:58:29;10.97;88.27
64111;DHT22;50401;48.188;11.566;2023-05-14T07:00:54;11.09;88.14
64111;DHT22;50401;48.188;11.566;2023-05-14T07:03:20;10.92;88.48
64111;DHT22;50401;48.188;11.566;2023-05-14T07:05:46;10.86;88.42
64111;DHT22;50401;48.188;11.566;2023-05-14T07:08:11;10.60;89.24
64111;DHT22;50401;48.188;11.566;2023-05-14T07:10:37;10.68;89.43
64111;DHT22;50401;48.188;11.566;2023-05-14T07:13:03;10.80;89.33
64111;DHT22;50401;48.188;11.566;2023-05-14T07:15:29;10.96;88.71
64111;DHT22;50401;48.188;11.566;2023-05-14T07:17:54;10.92;88.66
64111;DHT22;50401;48.188;11.566;2023-05-14T07:20:20;10.97;88.20
64111;DHT22;50401;48.188;11.566;2023-05-14T07:22:46;11.19;87.68
64111;DHT22;50401;48.188;11.566;2023-05-14T07:25:12;11.31;87.30
64111;DHT22;50401;48.188;11.566;2023-05-14T07:27:37;11.39;86.90
64111;DHT22;50401;48.188;11.566;2023-05-14T07:30:03;11.27;87.02
64111;DHT22;50401;48.188;11.566;2023-05-14T07:32:28;11.39;86.92
64111;DHT22;50401;48.188;11.566;2023-05-14T07:34:53;11.35;86.80
64111;DHT22;50401;48.188;11.566;2023-05-14T07:37:19;11.37;86.33
64111;DHT22;50401;48.188;11.566;2023-05-14T07:39:46;11.42;86.36
64111;DHT22;50401;48.188;11.566;2023-05-14T07:42:12;11.41;86.45
64111;DHT22;50401;48.188;11.566;2023-05-14T07:44:37;11.44;86.56
64111;DHT22;50401;48.188;11.566;2023-05-14T07:47:03;11.48;86.47
64111;DHT22;50401;48.188;11.566;2023-05-14T07:49:28;11.52;86.23
64111;DHT22;50401;48.188;11.566;2023-05-14T07:51:53;11.54;86.03
64111;DHT22;50401;48.188;11.566;2023-05-14T07:54:19;11.62;86.05
64111;DHT22;50401;48.188;11.566;2023-05-14T07:56:45;11.66;86.18
64111;DHT22;50401;48.188;11.566;2023-05-14T07:59:10;11.78;85.94
64111;DHT22;50401;48.188;11.566;2023-05-14T08:01:36;11.80;85.74
64111;DHT22;50401;48.188;11.566;2023-05-14T08:04:01;11.78;85.68
64111;DHT22;50401;48.188;11.566;2023-05-14T08:06:26;11.75;85.64
64111;DHT22;50401;48.188;11.566;2023-05-14T08:08:52;11.75;85.82
64111;DHT22;50401;48.188;11.566;2023-05-14T08:11:17;11.76;85.53
64111;DHT22;50401;48.188;11.566;2023-05-14T08:13:43;11.82;85.58
64111;DHT22;50401;48.188;11.566;2023-05-14T08:16:08;11.96;85.24
64111;DHT22;50401;48.188;11.566;2023-05-14T08:18:34;12.01;84.73
64111;DHT22;50401;48.188;11.566;2023-05-14T08:21:00;12.07;84.39
64111;DHT22;50401;48.188;11.566;2023-05-14T08:23:25;12.14;84.11
64111;DHT22;50401;48.188;11.566;2023-05-14T08:25:51;12.21;83.75
64111;DHT22;50401;48.188;11.566;2023-05-14T08:28:16;12.14;83.88
64111;DHT22;50401;48.188;11.566;2023-05-14T08:30:42;12.17;83.60
64111;DHT22;50401;48.188;11.566;2023-05-14T08:33:07;12.12;83.72
64111;DHT22;50401;48.188;11.566;2023-05-14T08:35:33;12.04;83.66
64111;DHT22;50401;48.188;11.566;2023-05-14T08:37:58;11.94;83.99
64111;DHT22;50401;48.188;11.566;2023-05-14T08:40:24;11.87;84.25
64111;DHT22;50401;48.188;11.566;2023-05-14T08:42:50;11.91;83.98
64111;DHT22;50401;48.188;11.566;2023-05-14T08:45:20;11.87;83.79
64111;DHT22;50401;48.188;11.566;2023-05-14T08:47:50;11.86;84.00
64111;DHT22;50401;48.188;11.566;2023-05-14T08:50:17;11.86;83.71
64111;DHT22;50401;48.188;11.566;2023-05-14T08:52:44;11.85;83.99
64111;DHT22;50401;48.188;11.566;2023-05-14T08:55:11;11.87;83.96
64111;DHT22;50401;48.188;11.566;2023-05-14T08:57:39;11.91;83.78
64111;DHT22;50401;48.188;11.566;2023-05-14T09:00:06;11.93;83.46
64111;DHT22;50401;48.188;11.566;2023-05-14T09:02:39;12.00;83.28
64111;DHT22;50401;48.188;11.566;2023-05-14T09:05:05;12.04;83.17
64111;DHT22;50401;48.188;11.566;2023-05-14T09:07:32;12.03;82.96
64111;DHT22;50401;48.188;11.566;2023-05-14T09:09:57;11.98;83.05
64111;DHT22;50401;48.188;11.566;2023-05-14T09:12:23;12.14;83.00
64111;DHT22;50401;48.188;11.566;2023-05-14T09:14:49;12.18;82.72
64111;DHT22;50401;48.188;11.566;2023-05-14T09:17:15;12.28;82.28
64111;DHT22;50401;48.188;11.566;2023-05-14T09:19:42;12.22;82.09
64111;DHT22;50401;48.188;11.566;2023-05-14T09:22:11;12.18;82.01
64111;DHT22;50401;48.188;11.566;2023-05-14T09:24:37;12.25;82.04
64111;DHT22;50401;48.188;11.566;2023-05-14T09:27:03;12.30;81.58
64111;DHT22;50401;48.188;11.566;2023-05-14T09:29:29;12.35;81.33
64111;DHT22;50401;48.188;11.566;2023-05-14T09:31:56;12.44;81.32
64111;DHT22;50401;48.188;11.566;2023-05-14T09:34:25;12.55;80.94
64111;DHT22;50401;48.188;11.566;2023-05-14T09:39:22;12.63;80.61
64111;DHT22;50401;48.188;11.566;2023-05-14T09:41:50;12.76;80.25
64111;DHT22;50401;48.188;11.566;2023-05-14T09:44:17;12.82;79.93
64111;DHT22;50401;48.188;11.566;2023-05-14T09:46:44;12.90;79.70
64111;DHT22;50401;48.188;11.566;2023-05-14T09:49:09;12.93;79.51
64111;DHT22;50401;48.188;11.566;2023-05-14T09:51:36;12.96;79.52
64111;DHT22;50401;48.188;11.566;2023-05-14T09:54:03;12.89;79.86
64111;DHT22;50401;48.188;11.566;2023-05-14T09:56:28;12.83;80.02
64111;DHT22;50401;48.188;11.566;2023-05-14T09:58:54;12.65;80.17
64111;DHT22;50401;48.188;11.566;2023-05-14T10:01:21;12.45;80.91
64111;DHT22;50401;48.188;11.566;2023-05-14T10:03:47;12.28;81.12
64111;DHT22;50401;48.188;11.566;2023-05-14T10:06:15;12.20;81.42
64111;DHT22;50401;48.188;11.566;2023-05-14T10:08:44;12.18;81.61
64111;DHT22;50401;48.188;11.566;2023-05-14T10:11:15;12.18;81.36
64111;DHT22;50401;48.188;11.566;2023-05-14T10:14:10;12.18;81.33
64111;DHT22;50401;48.188;11.566;2023-05-14T10:16:46;12.25;81.41
64111;DHT22;50401;48.188;11.566;2023-05-14T10:19:14;12.34;81.40
64111;DHT22;50401;48.188;11.566;2023-05-14T10:21:40;12.39;81.02
64111;DHT22;50401;48.188;11.566;2023-05-14T10:24:08;12.38;80.77
64111;DHT22;50401;48.188;11.566;2023-05-14T10:26:37;12.38;80.65
64111;DHT22;50401;48.188;11.566;2023-05-14T10:29:04;12.39;80.57
64111;DHT22;50401;48.188;11.566;2023-05-14T10:31:51;12.41;80.48
64111;DHT22;50401;48.188;11.566;2023-05-14T10:34:35;12.37;80.52
64111;DHT22;50401;48.188;11.566;2023-05-14T10:37:13;12.31;80.53
64111;DHT22;50401;48.188;11.566;2023-05-14T10:39:46;12.35;80.22
64111;DHT22;50401;48.188;11.566;2023-05-14T10:42:14;12.38;80.18
64111;DHT22;50401;48.188;11.566;2023-05-14T10:44:47;12.41;79.83
64111;DHT22;50401;48.188;11.566;2023-05-14T10:47:13;12.35;79.92
64111;DHT22;50401;48.188;11.566;2023-05-14T10:49:40;12.38;80.00
64111;DHT22;50401;48.188;11.566;2023-05-14T10:52:07;12.35;79.55
64111;DHT22;50401;48.188;11.566;2023-05-14T10:54:36;12.35;79.73
64111;DHT22;50401;48.188;11.566;2023-05-14T10:57:01;12.39;79.27
64111;DHT22;50401;48.188;11.566;2023-05-14T10:59:27;12.38;79.65
64111;DHT22;50401;48.188;11.566;2023-05-14T11:01:52;12.39;79.66
64111;DHT22;50401;48.188;11.566;2023-05-14T11:04:18;12.03;80.25
64111;DHT22;50401;48.188;11.566;2023-05-14T11:06:47;12.06;80.51
64111;DHT22;50401;48.188;11.566;2023-05-14T11:09:14;11.83;80.85
64111;DHT22;50401;48.188;11.566;2023-05-14T11:11:41;11.89;81.07
64111;DHT22;50401;48.188;11.566;2023-05-14T11:14:08;12.03;80.45
64111;DHT22;50401;48.188;11.566;2023-05-14T11:16:34;12.12;80.33
64111;DHT22;50401;48.188;11.566;2023-05-14T11:19:01;12.03;80.77
64111;DHT22;50401;48.188;11.566;2023-05-14T11:21:29;12.37;80.15
64111;DHT22;50401;48.188;11.566;2023-05-14T11:23:56;12.50;79.53
64111;DHT22;50401;48.188;11.566;2023-05-14T11:26:22;12.60;78.68
64111;DHT22;50401;48.188;11.566;2023-05-14T11:28:48;12.72;78.25
64111;DHT22;50401;48.188;11.566;2023-05-14T11:31:13;12.77;77.86
64111;DHT22;50401;48.188;11.566;2023-05-14T11:33:39;12.89;77.74
64111;DHT22;50401;48.188;11.566;2023-05-14T11:36:05;12.96;77.12
64111;DHT22;50401;48.188;11.566;2023-05-14T11:38:30;13.06;77.14
64111;DHT22;50401;48.188;11.566;2023-05-14T11:40:57;13.11;76.79
64111;DHT22;50401;48.188;11.566;2023-05-14T11:43:24;13.22;76.56
64111;DHT22;50401;48.188;11.566;2023-05-14T11:45:51;13.26;76.21
64111;DHT22;50401;48.188;11.566;2023-05-14T11:48:17;13.31;76.03
64111;DHT22;50401;48.188;11.566;2023-05-14T11:50:47;13.42;75.80
64111;DHT22;50401;48.188;11.566;2023-05-14T11:53:32;13.63;75.61
64111;DHT22;50401;48.188;11.566;2023-05-14T11:55:58;13.91;74.93
64111;DHT22;50401;48.188;11.566;2023-05-14T11:58:24;14.19;74.54
64111;DHT22;50401;48.188;11.566;2023-05-14T12:00:51;14.11;73.17
64111;DHT22;50401;48.188;11.566;2023-05-14T12:03:20;14.14;73.52
64111;DHT22;50401;48.188;11.566;2023-05-14T12:06:00;14.37;72.58
64111;DHT22;50401;48.188;11.566;2023-05-14T12:08:28;13.70;73.49
64111;DHT22;50401;48.188;11.566;2023-05-14T12:10:54;13.93;74.02
64111;DHT22;50401;48.188;11.566;2023-05-14T12:13:19;13.93;73.57
64111;DHT22;50401;48.188;11.566;2023-05-14T12:15:46;13.73;74.41
64111;DHT22;50401;48.188;11.566;2023-05-14T12:18:11;13.65;74.97
64111;DHT22;50401;48.188;11.566;2023-05-14T12:20:37;13.95;74.08
64111;DHT22;50401;48.188;11.566;2023-05-14T12:23:02;14.39;73.26
64111;DHT22;50401;48.188;11.566;2023-05-14T12:25:28;14.52;72.20
64111;DHT22;50401;48.188;11.566;2023-05-14T12:27:53;14.70;72.05
64111;DHT22;50401;48.188;11.566;2023-05-14T12:30:19;14.70;71.85
64111;DHT22;50401;48.188;11.566;2023-05-14T12:32:45;14.59;72.12
64111;DHT22;50401;48.188;11.566;2023-05-14T12:35:10;14.70;71.44
64111;DHT22;50401;48.188;11.566;2023-05-14T12:37:36;14.77;71.14
64111;DHT22;50401;48.188;11.566;2023-05-14T12:40:04;14.89;71.41
64111;DHT22;50401;48.188;11.566;2023-05-14T12:42:38;14.66;70.95
64111;DHT22;50401;48.188;11.566;2023-05-14T12:45:04;14.94;70.83
64111;DHT22;50401;48.188;11.566;2023-05-14T12:47:32;15.05;69.83
64111;DHT22;50401;48.188;11.566;2023-05-14T12:49:57;15.13;68.96
64111;DHT22;50401;48.188;11.566;2023-05-14T12:52:23;15.22;69.12
64111;DHT22;50401;48.188;11.566;2023-05-14T12:54:48;15.16;69.23
64111;DHT22;50401;48.188;11.566;2023-05-14T12:57:14;14.98;70.35
64111;DHT22;50401;48.188;11.566;2023-05-14T12:59:39;15.02;70.10
64111;DHT22;50401;48.188;11.566;2023-05-14T13:02:05;15.06;70.28
64111;DHT22;50401;48.188;11.566;2023-05-14T13:04:31;15.08;69.46
64111;DHT22;50401;48.188;11.566;2023-05-14T13:06:56;14.76;69.77
64111;DHT22;50401;48.188;11.566;2023-05-14T13:09:21;14.83;69.93
64111;DHT22;50401;48.188;11.566;2023-05-14T13:11:47;14.92;69.39
64111;DHT22;50401;48.188;11.566;2023-05-14T13:14:12;15.01;69.60
64111;DHT22;50401;48.188;11.566;2023-05-14T13:16:37;15.19;69.57
64111;DHT22;50401;48.188;11.566;2023-05-14T13:19:03;15.13;68.71
64111;DHT22;50401;48.188;11.566;2023-05-14T13:21:28;15.12;68.84
64111;DHT22;50401;48.188;11.566;2023-05-14T13:23:53;14.81;68.60
64111;DHT22;50401;48.188;11.566;2023-05-14T13:26:19;14.99;68.42
64111;DHT22;50401;48.188;11.566;2023-05-14T13:28:44;14.89;68.72
64111;DHT22;50401;48.188;11.566;2023-05-14T13:31:11;14.91;67.84
64111;DHT22;50401;48.188;11.566;2023-05-14T13:33:40;15.01;68.23
64111;DHT22;50401;48.188;11.566;2023-05-14T13:36:06;15.11;67.74
64111;DHT22;50401;48.188;11.566;2023-05-14T13:38:32;15.08;68.54
64111;DHT22;50401;48.188;11.566;2023-05-14T13:40:57;15.11;68.81
64111;DHT22;50401;48.188;11.566;2023-05-14T13:43:35;15.08;69.20
64111;DHT22;50401;48.188;11.566;2023-05-14T13:46:02;15.09;69.75
64111;DHT22;50401;48.188;11.566;2023-05-14T13:48:28;15.23;69.91
64111;DHT22;50401;48.188;11.566;2023-05-14T13:50:55;15.19;66.54
64111;DHT22;50401;48.188;11.566;2023-05-14T13:53:21;15.16;67.06
64111;DHT22;50401;48.188;11.566;2023-05-14T13:55:47;14.83;67.50
64111;DHT22;50401;48.188;11.566;2023-05-14T13:58:13;14.95;68.52
64111;DHT22;50401;48.188;11.566;2023-05-14T14:00:38;15.15;67.97
64111;DHT22;50401;48.188;11.566;2023-05-14T14:03:04;15.02;66.55
64111;DHT22;50401;48.188;11.566;2023-05-14T14:05:29;15.21;66.81
64111;DHT22;50401;48.188;11.566;2023-05-14T14:07:56;15.33;67.15
64111;DHT22;50401;48.188;11.566;2023-05-14T14:10:21;15.36;66.45
64111;DHT22;50401;48.188;11.566;2023-05-14T14:12:47;15.44;66.86
64111;DHT22;50401;48.188;11.566;2023-05-14T14:15:13;15.50;67.10
64111;DHT22;50401;48.188;11.566;2023-05-14T14:17:38;15.58;66.08
64111;DHT22;50401;48.188;11.566;2023-05-14T14:20:06;15.61;65.55
64111;DHT22;50401;48.188;11.566;2023-05-14T14:22:32;15.49;65.45
64111;DHT22;50401;48.188;11.566;2023-05-14T14:24:57;15.56;65.29
64111;DHT22;50401;48.188;11.566;2023-05-14T14:27:23;15.72;64.11
64111;DHT22;50401;48.188;11.566;2023-05-14T14:29:48;15.64;64.34
64111;DHT22;50401;48.188;11.566;2023-05-14T14:32:13;15.68;65.04
64111;DHT22;50401;48.188;11.566;2023-05-14T14:34:39;15.71;66.12
64111;DHT22;50401;48.188;11.566;2023-05-14T14:37:05;15.67;65.76
64111;DHT22;50401;48.188;11.566;2023-05-14T14:39:30;15.64;65.56
64111;DHT22;50401;48.188;11.566;2023-05-14T14:41:56;15.80;65.51
64111;DHT22;50401;48.188;11.566;2023-05-14T14:44:21;15.89;65.21
64111;DHT22;50401;48.188;11.566;2023-05-14T14:46:46;16.01;64.53
64111;DHT22;50401;48.188;11.566;2023-05-14T14:49:12;16.06;64.18
64111;DHT22;50401;48.188;11.566;2023-05-14T14:51:37;16.02;63.82
64111;DHT22;50401;48.188;11.566;2023-05-14T14:54:04;15.99;63.54
64111;DHT22;50401;48.188;11.566;2023-05-14T14:56:29;16.02;63.25
64111;DHT22;50401;48.188;11.566;2023-05-14T14:58:55;16.15;63.19
64111;DHT22;50401;48.188;11.566;2023-05-14T15:01:21;16.27;63.06
64111;DHT22;50401;48.188;11.566;2023-05-14T15:03:47;16.22;61.31
64111;DHT22;50401;48.188;11.566;2023-05-14T15:06:13;16.36;62.18
64111;DHT22;50401;48.188;11.566;2023-05-14T15:08:38;16.41;63.23
64111;DHT22;50401;48.188;11.566;2023-05-14T15:11:04;16.44;62.39
64111;DHT22;50401;48.188;11.566;2023-05-14T15:13:32;16.46;60.60
64111;DHT22;50401;48.188;11.566;2023-05-14T15:15:58;16.50;60.00
64111;DHT22;50401;48.188;11.566;2023-05-14T15:18:24;16.54;59.52